createdAt,value
2022-09-17T00:01:38.316Z,95.80
2022-09-17T00:04:05.482Z,95.90
2022-09-17T00:06:35.275Z,95.90
2022-09-17T00:09:02.942Z,95.80
2022-09-17T00:11:32.156Z,95.80
2022-09-17T00:14:01.772Z,95.90
2022-09-17T00:16:35.864Z,95.90
2022-09-17T00:19:04.190Z,95.80
2022-09-17T00:21:31.367Z,95.80
2022-09-17T00:24:00.530Z,95.90
2022-09-17T00:26:29.231Z,95.80
2022-09-17T00:28:57.392Z,95.90
2022-09-17T00:31:25.264Z,96.20
2022-09-17T00:33:52.506Z,95.90
2022-09-17T00:36:20.679Z,95.90
2022-09-17T00:38:51.912Z,96.00
2022-09-17T00:41:19.803Z,96.00
2022-09-17T00:43:49.651Z,96.00
2022-09-17T00:46:41.938Z,96.00
2022-09-17T00:49:11.795Z,96.00
2022-09-17T00:51:56.010Z,96.00
2022-09-17T00:54:26.256Z,96.10
2022-09-17T00:56:53.266Z,96.10
2022-09-17T00:59:20.984Z,96.10
2022-09-17T01:01:48.448Z,96.20
2022-09-17T01:04:19.909Z,96.20
2022-09-17T01:06:55.681Z,96.20
2022-09-17T01:09:42.125Z,96.30
2022-09-17T01:12:23.916Z,96.30
2022-09-17T01:15:16.722Z,96.20
2022-09-17T01:17:59.596Z,96.30
2022-09-17T01:20:53.712Z,96.40
2022-09-17T01:24:06.284Z,96.40
2022-09-17T01:27:03.887Z,96.50
2022-09-17T01:29:52.506Z,96.50
2022-09-17T01:32:42.698Z,96.60
2022-09-17T01:35:19.317Z,96.50
2022-09-17T01:37:51.887Z,96.50
2022-09-17T01:40:27.617Z,96.50
2022-09-17T01:42:59.102Z,96.50
2022-09-17T01:45:48.145Z,96.50
2022-09-17T01:48:20.187Z,96.50
2022-09-17T01:50:58.079Z,96.60
2022-09-17T01:53:31.016Z,96.60
2022-09-17T01:55:59.776Z,96.50
2022-09-17T01:58:40.337Z,96.60
2022-09-17T02:01:12.311Z,96.70
2022-09-17T02:03:56.845Z,96.70
2022-09-17T02:06:30.246Z,96.70
2022-09-17T02:09:02.741Z,96.80
2022-09-17T02:11:30.257Z,96.80
2022-09-17T02:14:15.236Z,96.80
2022-09-17T02:16:49.861Z,96.90
2022-09-17T02:19:27.798Z,96.90
2022-09-17T02:22:09.650Z,96.90
2022-09-17T02:25:19.955Z,97.00
2022-09-17T02:28:03.538Z,97.00
2022-09-17T02:30:32.185Z,97.00
2022-09-17T02:33:01.607Z,96.90
2022-09-17T02:35:30.592Z,97.00
2022-09-17T02:37:57.430Z,97.00
2022-09-17T02:40:28.227Z,97.00
2022-09-17T02:43:16.105Z,97.10
2022-09-17T02:45:55.058Z,97.10
2022-09-17T02:49:01.563Z,97.20
2022-09-17T02:51:48.462Z,97.20
2022-09-17T02:54:15.294Z,97.30
2022-09-17T02:57:29.967Z,97.10
2022-09-17T03:00:12.282Z,97.30
2022-09-17T03:02:47.542Z,97.30
2022-09-17T03:05:17.366Z,97.30
2022-09-17T03:07:44.268Z,97.30
2022-09-17T03:10:11.718Z,97.40
2022-09-17T03:12:38.796Z,97.50
2022-09-17T03:15:06.664Z,97.60
2022-09-17T03:17:33.533Z,97.60
2022-09-17T03:20:00.283Z,97.50
2022-09-17T03:22:27.196Z,97.60
2022-09-17T03:24:54.197Z,97.80
2022-09-17T03:27:21.028Z,97.80
2022-09-17T03:29:47.845Z,97.80
2022-09-17T03:32:14.641Z,97.80
2022-09-17T03:34:41.580Z,97.80
2022-09-17T03:37:08.409Z,97.80
2022-09-17T03:39:35.217Z,97.90
2022-09-17T03:42:02.049Z,97.90
2022-09-17T03:44:28.829Z,97.80
2022-09-17T03:46:55.725Z,97.90
2022-09-17T03:49:24.053Z,98.20
2022-09-17T03:51:51.093Z,97.80
2022-09-17T03:54:17.990Z,97.90
2022-09-17T03:56:44.780Z,97.80
2022-09-17T03:59:11.584Z,97.90
2022-09-17T04:01:38.809Z,98.00
2022-09-17T04:04:05.677Z,98.00
2022-09-17T04:06:32.595Z,98.00
2022-09-17T04:09:01.000Z,98.00
2022-09-17T04:11:27.823Z,98.00
2022-09-17T04:13:54.681Z,98.00
2022-09-17T04:16:21.526Z,98.10
2022-09-17T04:18:48.351Z,98.10
2022-09-17T04:21:15.134Z,98.10
2022-09-17T04:23:41.932Z,98.10
2022-09-17T04:26:08.821Z,98.20
2022-09-17T04:28:35.591Z,98.20
2022-09-17T04:31:02.438Z,98.20
2022-09-17T04:33:29.249Z,98.20
2022-09-17T04:35:56.042Z,98.30
2022-09-17T04:38:22.942Z,98.30
2022-09-17T04:40:51.544Z,98.40
2022-09-17T04:43:18.332Z,98.40
2022-09-17T04:45:49.435Z,98.40
2022-09-17T04:48:16.460Z,98.50
2022-09-17T04:50:43.465Z,98.50
2022-09-17T04:53:10.338Z,98.50
2022-09-17T04:55:37.153Z,98.70
2022-09-17T04:58:04.533Z,98.80
2022-09-17T05:00:31.569Z,98.80
2022-09-17T05:02:58.362Z,98.90
2022-09-17T05:05:25.286Z,99.00
2022-09-17T05:07:52.410Z,99.00
2022-09-17T05:10:21.422Z,99.10
2022-09-17T05:12:53.550Z,99.10
2022-09-17T05:15:21.171Z,99.20
2022-09-17T05:17:48.216Z,99.10
2022-09-17T05:20:15.829Z,99.30
2022-09-17T05:22:51.432Z,99.30
2022-09-17T05:25:20.529Z,99.40
2022-09-17T05:27:47.336Z,99.40
2022-09-17T05:30:14.437Z,99.50
2022-09-17T05:32:41.317Z,99.40
2022-09-17T05:35:09.362Z,99.50
2022-09-17T05:37:37.164Z,99.60
2022-09-17T05:40:07.155Z,99.60
2022-09-17T05:42:34.381Z,99.70
2022-09-17T05:45:01.264Z,99.70
2022-09-17T05:47:28.051Z,99.80
2022-09-17T05:49:54.832Z,99.80
2022-09-17T05:52:21.733Z,99.80
2022-09-17T05:54:48.709Z,99.80
2022-09-17T05:57:16.079Z,99.70
2022-09-17T05:59:45.875Z,99.70
2022-09-17T06:02:14.214Z,99.70
2022-09-17T06:04:41.160Z,99.80
2022-09-17T06:07:09.316Z,99.70
2022-09-17T06:09:40.626Z,99.70
2022-09-17T06:12:07.854Z,99.60
2022-09-17T06:14:34.645Z,99.70
2022-09-17T06:17:01.408Z,99.70
2022-09-17T06:19:28.496Z,99.60
2022-09-17T06:21:55.660Z,99.60
2022-09-17T06:24:22.639Z,99.50
2022-09-17T06:26:49.538Z,99.60
2022-09-17T06:29:16.422Z,99.60
2022-09-17T06:31:44.934Z,99.60
2022-09-17T06:34:12.413Z,99.60
2022-09-17T06:36:39.347Z,99.40
2022-09-17T06:39:06.957Z,99.40
2022-09-17T06:41:34.017Z,99.30
2022-09-17T06:44:02.127Z,99.40
2022-09-17T06:46:29.158Z,99.30
2022-09-17T06:48:56.283Z,99.20
2022-09-17T06:51:23.590Z,99.00
2022-09-17T06:53:50.478Z,99.10
2022-09-17T06:56:17.899Z,98.90
2022-09-17T06:58:45.002Z,98.80
2022-09-17T07:01:13.146Z,98.70
2022-09-17T07:03:42.972Z,98.60
2022-09-17T07:06:10.896Z,98.50
2022-09-17T07:08:38.149Z,98.40
2022-09-17T07:11:05.432Z,98.10
2022-09-17T07:13:32.240Z,98.10
2022-09-17T07:16:01.132Z,98.20
2022-09-17T07:18:28.554Z,98.10
2022-09-17T07:21:03.767Z,97.90
2022-09-17T07:23:33.480Z,97.90
2022-09-17T07:26:10.111Z,97.90
2022-09-17T07:28:39.351Z,98.10
2022-09-17T07:31:08.125Z,98.10
2022-09-17T07:33:38.196Z,98.20
2022-09-17T07:36:18.075Z,98.20
2022-09-17T07:38:45.036Z,98.30
2022-09-17T07:41:14.337Z,98.30
2022-09-17T07:43:42.106Z,98.30
2022-09-17T07:46:17.873Z,98.30
2022-09-17T07:48:46.026Z,98.50
2022-09-17T07:51:21.926Z,98.40
2022-09-17T07:53:54.711Z,98.40
2022-09-17T07:56:22.247Z,98.40
2022-09-17T07:58:49.306Z,98.50
2022-09-17T08:01:17.366Z,98.60
2022-09-17T08:03:49.191Z,98.60
2022-09-17T08:06:18.486Z,98.80
2022-09-17T08:08:45.547Z,98.90
2022-09-17T08:11:16.389Z,98.90
2022-09-17T08:13:52.558Z,98.60
2022-09-17T08:16:21.243Z,98.60
2022-09-17T08:18:49.151Z,98.60
2022-09-17T08:21:18.537Z,98.50
2022-09-17T08:23:45.898Z,98.50
2022-09-17T08:26:23.590Z,98.60
2022-09-17T08:28:55.633Z,98.80
2022-09-17T08:31:24.761Z,98.80
2022-09-17T08:33:51.664Z,98.60
2022-09-17T08:36:19.942Z,98.80
2022-09-17T08:38:47.015Z,98.60
2022-09-17T08:41:23.110Z,98.40
2022-09-17T08:44:21.630Z,98.50
2022-09-17T08:47:00.951Z,98.60
2022-09-17T08:49:36.596Z,98.60
2022-09-17T08:52:10.075Z,98.60
2022-09-17T08:55:13.336Z,98.50
2022-09-17T08:57:54.984Z,98.50
2022-09-17T09:00:26.172Z,98.40
2022-09-17T09:03:08.752Z,98.50
2022-09-17T09:05:48.574Z,98.60
2022-09-17T09:08:19.657Z,98.70
2022-09-17T09:10:58.125Z,98.70
2022-09-17T09:13:30.045Z,98.70
2022-09-17T09:16:20.591Z,98.50
2022-09-17T09:18:54.428Z,98.40
2022-09-17T09:21:28.659Z,98.30
2022-09-17T09:24:19.492Z,97.80
2022-09-17T09:26:49.607Z,97.70
2022-09-17T09:29:25.292Z,97.80
2022-09-17T09:31:55.073Z,97.80
2022-09-17T09:34:23.806Z,97.80
2022-09-17T09:36:52.207Z,98.10
2022-09-17T09:39:33.626Z,98.30
2022-09-17T09:42:35.559Z,98.30
2022-09-17T09:46:03.879Z,98.20
2022-09-17T09:48:39.771Z,98.20
2022-09-17T09:51:32.674Z,98.30
2022-09-17T09:54:18.971Z,98.40
2022-09-17T09:57:00.390Z,98.30
2022-09-17T09:59:27.318Z,98.30
2022-09-17T10:01:54.276Z,98.40
2022-09-17T10:04:24.542Z,98.00
2022-09-17T10:07:07.925Z,97.80
2022-09-17T10:09:37.122Z,97.70
2022-09-17T10:12:15.293Z,97.70
2022-09-17T10:14:44.244Z,97.90
2022-09-17T10:17:23.052Z,98.00
2022-09-17T10:20:11.416Z,97.90
2022-09-17T10:22:44.676Z,97.80
2022-09-17T10:25:44.057Z,98.10
2022-09-17T10:28:29.071Z,97.80
2022-09-17T10:31:05.186Z,97.90
2022-09-17T10:33:37.002Z,97.80
2022-09-17T10:36:14.741Z,97.30
2022-09-17T10:38:46.286Z,97.10
2022-09-17T10:41:16.259Z,97.50
2022-09-17T10:43:43.870Z,98.10
2022-09-17T10:46:15.332Z,98.50
2022-09-17T10:48:54.107Z,98.60
2022-09-17T10:51:24.425Z,98.30
2022-09-17T10:54:14.565Z,98.40
2022-09-17T10:56:49.698Z,98.50
2022-09-17T10:59:28.617Z,97.80
2022-09-17T11:02:26.691Z,97.90
2022-09-17T11:04:59.634Z,97.90
2022-09-17T11:07:42.994Z,97.90
2022-09-17T11:10:16.571Z,97.70
2022-09-17T11:13:29.611Z,97.80
2022-09-17T11:15:59.514Z,97.90
2022-09-17T11:18:35.368Z,98.10
2022-09-17T11:21:41.802Z,98.10
2022-09-17T11:24:29.769Z,98.20
2022-09-17T11:27:10.540Z,98.10
2022-09-17T11:29:53.052Z,98.10
2022-09-17T11:32:44.321Z,97.90
2022-09-17T11:35:27.452Z,97.90
2022-09-17T11:38:14.222Z,98.00
2022-09-17T11:40:43.501Z,97.90
2022-09-17T11:43:13.257Z,97.80
2022-09-17T11:45:48.872Z,97.80
2022-09-17T11:48:21.100Z,97.90
2022-09-17T11:50:51.847Z,98.00
2022-09-17T11:53:32.313Z,98.20
2022-09-17T11:56:17.743Z,98.30
2022-09-17T11:59:03.623Z,98.20
2022-09-17T12:02:05.899Z,98.20
2022-09-17T12:04:52.785Z,98.20
2022-09-17T12:07:48.410Z,98.10
2022-09-17T12:10:30.073Z,98.10
2022-09-17T12:13:16.372Z,97.80
2022-09-17T12:15:51.054Z,97.50
2022-09-17T12:18:46.581Z,97.30
2022-09-17T12:21:19.053Z,97.30
2022-09-17T12:23:49.908Z,97.30
2022-09-17T12:26:30.965Z,97.20
2022-09-17T12:29:19.417Z,97.20
2022-09-17T12:32:05.181Z,97.40
2022-09-17T12:35:46.423Z,96.90
2022-09-17T12:38:33.014Z,96.90
2022-09-17T12:41:39.361Z,96.70
2022-09-17T12:44:14.442Z,96.70
2022-09-17T12:47:11.773Z,96.60
2022-09-17T12:50:07.327Z,96.70
2022-09-17T12:52:57.567Z,96.90
2022-09-17T12:55:42.319Z,96.70
2022-09-17T12:58:21.339Z,96.80
2022-09-17T13:01:29.826Z,96.70
2022-09-17T13:04:11.828Z,96.60
2022-09-17T13:07:29.180Z,96.60
2022-09-17T13:10:37.796Z,96.60
2022-09-17T13:13:22.851Z,96.70
2022-09-17T13:16:13.317Z,97.00
2022-09-17T13:19:18.292Z,97.20
2022-09-17T13:22:04.036Z,97.30
2022-09-17T13:24:32.038Z,97.30
2022-09-17T13:27:07.980Z,97.10
2022-09-17T13:29:46.779Z,97.10
2022-09-17T13:32:35.129Z,97.10
2022-09-17T13:35:14.634Z,97.20
2022-09-17T13:37:54.220Z,97.30
2022-09-17T13:40:30.362Z,97.20
2022-09-17T13:42:58.269Z,97.10
2022-09-17T13:45:26.656Z,97.30
2022-09-17T13:47:56.382Z,97.50
2022-09-17T13:50:42.841Z,97.60
2022-09-17T13:53:15.505Z,97.80
2022-09-17T13:55:55.087Z,97.80
2022-09-17T13:58:29.134Z,97.80
2022-09-17T14:01:05.217Z,97.90
2022-09-17T14:03:34.160Z,98.00
2022-09-17T14:06:14.710Z,97.80
2022-09-17T14:08:44.706Z,97.70
2022-09-17T14:11:24.165Z,97.80
2022-09-17T14:14:06.488Z,97.80
2022-09-17T14:16:55.875Z,97.90
2022-09-17T14:19:51.319Z,98.00
2022-09-17T14:22:26.738Z,98.00
2022-09-17T14:24:54.700Z,98.10
2022-09-17T14:27:42.725Z,98.10
2022-09-17T14:30:14.340Z,98.30
2022-09-17T14:32:52.867Z,98.40
2022-09-17T14:35:24.375Z,98.50
2022-09-17T14:38:17.231Z,98.50
2022-09-17T14:40:46.706Z,98.60
2022-09-17T14:43:33.882Z,98.70
2022-09-17T14:46:01.559Z,98.70
2022-09-17T14:48:33.902Z,98.80
2022-09-17T14:51:18.954Z,98.80
2022-09-17T14:53:47.353Z,98.80
2022-09-17T14:56:22.488Z,99.00
2022-09-17T14:58:52.955Z,99.10
2022-09-17T15:01:28.566Z,99.20
2022-09-17T15:04:13.409Z,99.20
2022-09-17T15:06:41.544Z,99.10
2022-09-17T15:09:24.167Z,99.00
2022-09-17T15:11:54.895Z,98.90
2022-09-17T15:14:31.996Z,98.90
2022-09-17T15:17:01.484Z,99.00
2022-09-17T15:19:36.096Z,98.90
2022-09-17T15:22:16.485Z,98.70
2022-09-17T15:24:54.213Z,98.30
2022-09-17T15:27:32.490Z,98.30
2022-09-17T15:30:04.077Z,98.40
2022-09-17T15:32:32.406Z,98.40
2022-09-17T15:35:14.462Z,98.40
2022-09-17T15:40:42.725Z,98.50
2022-09-17T15:43:38.666Z,98.50
2022-09-17T15:46:27.042Z,98.70
2022-09-17T15:49:01.641Z,98.70
2022-09-17T15:51:33.527Z,99.00
2022-09-17T15:54:04.677Z,98.70
2022-09-17T15:56:34.138Z,98.70
2022-09-17T15:59:03.160Z,98.80
2022-09-17T16:01:29.964Z,98.90
2022-09-17T16:04:01.938Z,98.90
2022-09-17T16:06:28.823Z,99.10
2022-09-17T16:08:57.505Z,99.00
2022-09-17T16:11:30.033Z,98.70
2022-09-17T16:13:59.076Z,98.60
2022-09-17T16:16:35.947Z,98.50
2022-09-17T16:19:04.283Z,98.50
2022-09-17T16:21:31.255Z,98.40
2022-09-17T16:23:58.337Z,98.30
2022-09-17T16:26:31.536Z,98.40
2022-09-17T16:29:14.047Z,98.50
2022-09-17T16:31:40.889Z,98.70
2022-09-17T16:34:07.719Z,98.80
2022-09-17T16:36:34.542Z,98.80
2022-09-17T16:39:01.507Z,98.90
2022-09-17T16:41:28.318Z,99.00
2022-09-17T16:43:55.164Z,99.00
2022-09-17T16:46:21.997Z,99.10
2022-09-17T16:48:52.118Z,99.20
2022-09-17T16:51:19.022Z,99.20
2022-09-17T16:53:46.206Z,99.20
2022-09-17T16:56:15.426Z,99.30
2022-09-17T16:58:42.889Z,99.40
2022-09-17T17:01:11.684Z,99.50
2022-09-17T17:03:38.612Z,99.60
2022-09-17T17:06:05.880Z,99.90
2022-09-17T17:08:33.515Z,99.60
2022-09-17T17:11:01.002Z,99.70
2022-09-17T17:13:28.046Z,99.70
2022-09-17T17:15:55.308Z,99.90
2022-09-17T17:18:22.610Z,99.90
2022-09-17T17:20:49.419Z,99.90
2022-09-17T17:23:16.802Z,99.90
2022-09-17T17:25:43.661Z,99.90
2022-09-17T17:28:12.911Z,99.90
2022-09-17T17:30:39.757Z,99.90
2022-09-17T17:33:06.953Z,99.90
2022-09-17T17:35:33.727Z,99.90
2022-09-17T17:38:00.520Z,99.90
2022-09-17T17:40:27.383Z,99.90
2022-09-17T17:42:54.864Z,99.90
2022-09-17T17:45:21.891Z,99.90
2022-09-17T17:47:48.820Z,99.90
2022-09-17T17:50:16.061Z,99.90
2022-09-17T17:52:48.008Z,99.90
2022-09-17T17:55:15.916Z,99.90
2022-09-17T17:57:42.913Z,99.90
2022-09-17T18:00:12.368Z,99.90
2022-09-17T18:02:40.135Z,99.90
2022-09-17T18:05:07.349Z,99.90
2022-09-17T18:07:34.177Z,99.90
2022-09-17T18:10:01.012Z,99.90
2022-09-17T18:12:27.848Z,99.90
2022-09-17T18:14:54.660Z,99.90
2022-09-17T18:17:21.544Z,99.90
2022-09-17T18:19:48.352Z,99.90
2022-09-17T18:22:15.328Z,99.90
2022-09-17T18:24:42.139Z,99.90
2022-09-17T18:27:08.912Z,99.90
2022-09-17T18:29:35.777Z,99.90
2022-09-17T18:32:02.811Z,99.90
2022-09-17T18:34:29.684Z,99.90
2022-09-17T18:36:56.509Z,99.90
2022-09-17T18:39:56.757Z,99.90
2022-09-17T18:42:10.219Z,99.90
2022-09-17T18:44:37.211Z,99.90
2022-09-17T18:47:04.075Z,99.90
2022-09-17T18:49:30.925Z,99.90
2022-09-17T18:51:57.744Z,99.90
2022-09-17T18:54:24.629Z,99.90
2022-09-17T18:56:51.436Z,99.90
2022-09-17T18:59:18.245Z,99.90
2022-09-17T19:01:45.144Z,99.90
2022-09-17T19:04:11.987Z,99.90
2022-09-17T19:06:38.827Z,99.90
2022-09-17T19:09:06.286Z,99.90
2022-09-17T19:11:35.839Z,99.90
2022-09-17T19:14:02.819Z,99.90
2022-09-17T19:16:29.847Z,99.90
2022-09-17T19:18:56.723Z,99.90
2022-09-17T19:21:23.553Z,99.90
2022-09-17T19:23:52.218Z,99.90
2022-09-17T19:26:21.774Z,99.90
2022-09-17T19:28:51.996Z,99.90
2022-09-17T19:31:19.135Z,99.90
2022-09-17T19:33:46.820Z,99.90
2022-09-17T19:36:15.883Z,99.90
2022-09-17T19:38:43.241Z,99.90
2022-09-17T19:41:12.717Z,99.90
2022-09-17T19:43:40.016Z,99.90
2022-09-17T19:46:12.238Z,99.90
2022-09-17T19:48:44.595Z,99.90
2022-09-17T19:51:12.614Z,99.90
2022-09-17T19:53:39.508Z,99.90
2022-09-17T19:56:10.172Z,99.90
2022-09-17T19:58:37.066Z,99.90
2022-09-17T20:01:03.893Z,99.90
2022-09-17T20:03:31.010Z,99.90
2022-09-17T20:06:06.128Z,99.90
2022-09-17T20:08:36.812Z,99.90
2022-09-17T20:11:08.044Z,99.90
2022-09-17T20:13:35.490Z,99.90
2022-09-17T20:16:16.891Z,99.90
2022-09-17T20:18:46.559Z,99.90
2022-09-17T20:21:22.080Z,99.90
2022-09-17T20:23:49.114Z,99.90
2022-09-17T20:26:16.632Z,99.90
2022-09-17T20:28:44.066Z,99.90
2022-09-17T20:31:22.937Z,99.90
2022-09-17T20:34:02.055Z,99.90
2022-09-17T20:36:31.426Z,99.90
2022-09-17T20:39:23.064Z,99.90
2022-09-17T20:41:45.450Z,99.90
2022-09-17T20:44:12.290Z,99.90
2022-09-17T20:46:39.200Z,99.90
2022-09-17T20:49:06.170Z,99.90
2022-09-17T20:51:33.992Z,99.90
2022-09-17T20:54:01.731Z,99.90
2022-09-17T20:56:31.739Z,99.90
2022-09-17T20:59:07.894Z,99.90
2022-09-17T21:01:36.927Z,99.90
2022-09-17T21:04:06.271Z,99.90
2022-09-17T21:06:36.066Z,99.90
2022-09-17T21:09:03.501Z,99.90
2022-09-17T21:11:31.451Z,99.90
2022-09-17T21:13:59.983Z,99.90
2022-09-17T21:16:27.681Z,99.90
2022-09-17T21:18:59.065Z,99.90
2022-09-17T21:21:26.588Z,99.90
2022-09-17T21:23:53.693Z,99.90
2022-09-17T21:26:22.709Z,99.90
2022-09-17T21:28:51.110Z,99.90
2022-09-17T21:31:18.969Z,99.90
2022-09-17T21:33:46.824Z,99.90
2022-09-17T21:36:24.785Z,99.90
2022-09-17T21:38:53.039Z,99.90
2022-09-17T21:41:20.685Z,99.90
2022-09-17T21:43:47.946Z,99.90
2022-09-17T21:46:17.790Z,99.90
2022-09-17T21:48:46.894Z,99.90
2022-09-17T21:51:23.160Z,99.90
2022-09-17T21:53:55.730Z,99.90
2022-09-17T21:56:23.343Z,99.90
2022-09-17T21:58:55.981Z,99.90
2022-09-17T22:01:31.155Z,99.90
2022-09-17T22:03:58.783Z,99.90
2022-09-17T22:06:31.118Z,99.90
2022-09-17T22:08:59.485Z,99.90
2022-09-17T22:11:31.896Z,99.90
2022-09-17T22:14:04.912Z,99.90
2022-09-17T22:16:33.516Z,99.90
2022-09-17T22:19:02.587Z,99.90
2022-09-17T22:21:31.842Z,99.90
2022-09-17T22:24:01.618Z,99.90
2022-09-17T22:26:30.677Z,99.90
2022-09-17T22:29:01.846Z,99.90
2022-09-17T22:31:29.004Z,99.90
2022-09-17T22:33:55.893Z,99.90
2022-09-17T22:36:24.673Z,99.90
2022-09-17T22:38:56.648Z,99.90
2022-09-17T22:41:34.663Z,99.90
2022-09-17T22:44:06.226Z,99.90
2022-09-17T22:46:34.258Z,99.90
2022-09-17T22:49:01.462Z,99.90
2022-09-17T22:51:30.262Z,99.90
2022-09-17T22:53:58.366Z,99.90
2022-09-17T22:56:27.235Z,99.90
2022-09-17T22:58:55.557Z,99.90
2022-09-17T23:01:29.520Z,99.90
2022-09-17T23:03:57.386Z,99.90
2022-09-17T23:06:27.040Z,99.90
2022-09-17T23:08:54.041Z,99.90
2022-09-17T23:11:30.546Z,99.90
2022-09-17T23:14:01.980Z,99.90
2022-09-17T23:16:34.380Z,99.90
2022-09-17T23:19:02.529Z,99.90
2022-09-17T23:21:29.650Z,99.90
2022-09-17T23:23:56.461Z,99.90
2022-09-17T23:26:25.604Z,99.90
2022-09-17T23:28:52.746Z,99.90
2022-09-17T23:31:22.742Z,99.90
2022-09-17T23:33:50.546Z,99.90
2022-09-17T23:36:24.883Z,99.90
2022-09-17T23:38:52.791Z,99.90
2022-09-17T23:41:43.449Z,99.90
2022-09-17T23:44:15.419Z,99.90
2022-09-17T23:46:44.293Z,99.90
2022-09-17T23:49:12.511Z,99.90
2022-09-17T23:51:39.432Z,99.90
2022-09-17T23:54:07.275Z,99.90
2022-09-17T23:56:34.756Z,99.90
2022-09-17T23:59:02.556Z,99.90
